sensor_id;sensor_type;location;lat;lon;timestamp;P1;durP1;ratioP1;P2;durP2;ratioP2
74912;SDS011;63878;55.624;37.304;2023-12-28T00:05:00;2.78;;;1.83;;
74912;SDS011;63878;55.624;37.304;2023-12-28T00:15:01;2.42;;;1.50;;
74912;SDS011;63878;55.624;37.304;2023-12-28T00:25:02;3.28;;;1.80;;
74912;SDS011;63878;55.624;37.304;2023-12-28T00:35:02;4.33;;;1.80;;
74912;SDS011;63878;55.624;37.304;2023-12-28T00:45:03;2.90;;;2.10;;
74912;SDS011;63878;55.624;37.304;2023-12-28T00:55:04;2.55;;;1.70;;
74912;SDS011;63878;55.624;37.304;2023-12-28T01:05:05;3.25;;;1.75;;
74912;SDS011;63878;55.624;37.304;2023-12-28T01:15:06;2.67;;;1.80;;
74912;SDS011;63878;55.624;37.304;2023-12-28T01:25:07;3.38;;;1.77;;
74912;SDS011;63878;55.624;37.304;2023-12-28T01:35:07;3.00;;;1.50;;
74912;SDS011;63878;55.624;37.304;2023-12-28T01:55:09;3.80;;;2.13;;
74912;SDS011;63878;55.624;37.304;2023-12-28T02:05:12;3.53;;;2.20;;
74912;SDS011;63878;55.624;37.304;2023-12-28T02:15:13;2.92;;;1.90;;
74912;SDS011;63878;55.624;37.304;2023-12-28T02:25:14;4.60;;;2.03;;
74912;SDS011;63878;55.624;37.304;2023-12-28T02:45:20;2.95;;;1.70;;
74912;SDS011;63878;55.624;37.304;2023-12-28T02:55:21;4.47;;;2.47;;
74912;SDS011;63878;55.624;37.304;2023-12-28T03:05:22;3.70;;;2.10;;
74912;SDS011;63878;55.624;37.304;2023-12-28T03:15:22;2.72;;;1.73;;
74912;SDS011;63878;55.624;37.304;2023-12-28T03:35:23;4.97;;;1.67;;
74912;SDS011;63878;55.624;37.304;2023-12-28T03:45:24;2.70;;;1.45;;
74912;SDS011;63878;55.624;37.304;2023-12-28T03:55:24;2.40;;;1.67;;
74912;SDS011;63878;55.624;37.304;2023-12-28T04:05:25;2.93;;;1.80;;
74912;SDS011;63878;55.624;37.304;2023-12-28T04:25:26;2.63;;;1.50;;
74912;SDS011;63878;55.624;37.304;2023-12-28T04:35:26;3.13;;;2.05;;
74912;SDS011;63878;55.624;37.304;2023-12-28T04:45:27;3.20;;;1.70;;
74912;SDS011;63878;55.624;37.304;2023-12-28T04:55:28;3.40;;;2.15;;
74912;SDS011;63878;55.624;37.304;2023-12-28T05:15:29;2.75;;;1.50;;
74912;SDS011;63878;55.624;37.304;2023-12-28T05:25:30;3.20;;;1.67;;
74912;SDS011;63878;55.624;37.304;2023-12-28T05:35:30;2.03;;;1.50;;
74912;SDS011;63878;55.624;37.304;2023-12-28T05:55:31;2.50;;;1.40;;
74912;SDS011;63878;55.624;37.304;2023-12-28T06:05:31;2.75;;;1.20;;
74912;SDS011;63878;55.624;37.304;2023-12-28T06:15:32;3.20;;;1.50;;
74912;SDS011;63878;55.624;37.304;2023-12-28T06:25:32;2.42;;;1.30;;
74912;SDS011;63878;55.624;37.304;2023-12-28T06:45:33;2.53;;;1.55;;
74912;SDS011;63878;55.624;37.304;2023-12-28T06:55:34;1.90;;;1.17;;
74912;SDS011;63878;55.624;37.304;2023-12-28T07:05:34;1.90;;;1.13;;
74912;SDS011;63878;55.624;37.304;2023-12-28T07:15:34;3.17;;;1.45;;
74912;SDS011;63878;55.624;37.304;2023-12-28T07:25:35;1.55;;;0.98;;
74912;SDS011;63878;55.624;37.304;2023-12-28T07:35:36;3.15;;;1.80;;
74912;SDS011;63878;55.624;37.304;2023-12-28T07:45:37;2.40;;;1.25;;
74912;SDS011;63878;55.624;37.304;2023-12-28T07:55:38;2.83;;;1.73;;
74912;SDS011;63878;55.624;37.304;2023-12-28T08:05:38;3.17;;;1.50;;
74912;SDS011;63878;55.624;37.304;2023-12-28T08:25:40;3.30;;;2.15;;
74912;SDS011;63878;55.624;37.304;2023-12-28T08:35:40;3.83;;;2.08;;
74912;SDS011;63878;55.624;37.304;2023-12-28T08:45:41;3.28;;;2.15;;
74912;SDS011;63878;55.624;37.304;2023-12-28T08:55:42;3.30;;;1.93;;
74912;SDS011;63878;55.624;37.304;2023-12-28T09:15:43;3.70;;;1.60;;
74912;SDS011;63878;55.624;37.304;2023-12-28T09:25:43;2.95;;;1.55;;
74912;SDS011;63878;55.624;37.304;2023-12-28T09:45:48;4.10;;;1.90;;
74912;SDS011;63878;55.624;37.304;2023-12-28T09:55:48;2.55;;;2.10;;
74912;SDS011;63878;55.624;37.304;2023-12-28T10:05:49;3.95;;;1.75;;
74912;SDS011;63878;55.624;37.304;2023-12-28T10:15:49;2.50;;;1.52;;
74912;SDS011;63878;55.624;37.304;2023-12-28T10:25:50;2.55;;;1.70;;
74912;SDS011;63878;55.624;37.304;2023-12-28T10:35:51;1.95;;;1.40;;
74912;SDS011;63878;55.624;37.304;2023-12-28T10:45:51;2.67;;;1.58;;
74912;SDS011;63878;55.624;37.304;2023-12-28T10:56:13;2.40;;;1.73;;
74912;SDS011;63878;55.624;37.304;2023-12-28T11:06:26;2.38;;;1.45;;
74912;SDS011;63878;55.624;37.304;2023-12-28T11:16:28;3.22;;;1.95;;
74912;SDS011;63878;55.624;37.304;2023-12-28T11:26:29;2.97;;;1.83;;
74912;SDS011;63878;55.624;37.304;2023-12-28T11:36:33;4.45;;;2.30;;
74912;SDS011;63878;55.624;37.304;2023-12-28T11:46:35;1.77;;;0.95;;
74912;SDS011;63878;55.624;37.304;2023-12-28T11:56:35;3.25;;;1.98;;
74912;SDS011;63878;55.624;37.304;2023-12-28T12:06:36;3.45;;;2.13;;
74912;SDS011;63878;55.624;37.304;2023-12-28T12:16:37;3.15;;;2.35;;
74912;SDS011;63878;55.624;37.304;2023-12-28T12:26:38;2.40;;;1.83;;
74912;SDS011;63878;55.624;37.304;2023-12-28T12:36:38;3.22;;;2.03;;
74912;SDS011;63878;55.624;37.304;2023-12-28T12:46:39;4.18;;;2.20;;
74912;SDS011;63878;55.624;37.304;2023-12-28T12:56:39;2.25;;;1.70;;
74912;SDS011;63878;55.624;37.304;2023-12-28T13:06:40;4.15;;;1.60;;
74912;SDS011;63878;55.624;37.304;2023-12-28T13:16:40;2.77;;;1.53;;
74912;SDS011;63878;55.624;37.304;2023-12-28T13:26:41;3.17;;;1.65;;
74912;SDS011;63878;55.624;37.304;2023-12-28T13:46:42;2.63;;;1.35;;
74912;SDS011;63878;55.624;37.304;2023-12-28T13:56:42;2.43;;;1.40;;
74912;SDS011;63878;55.624;37.304;2023-12-28T14:06:43;6.50;;;3.40;;
74912;SDS011;63878;55.624;37.304;2023-12-28T14:16:44;3.10;;;1.77;;
74912;SDS011;63878;55.624;37.304;2023-12-28T14:36:45;3.27;;;2.00;;
74912;SDS011;63878;55.624;37.304;2023-12-28T14:46:47;4.07;;;2.00;;
74912;SDS011;63878;55.624;37.304;2023-12-28T14:56:48;4.93;;;2.70;;
74912;SDS011;63878;55.624;37.304;2023-12-28T15:16:49;6.30;;;3.40;;
74912;SDS011;63878;55.624;37.304;2023-12-28T15:26:50;5.82;;;3.35;;
74912;SDS011;63878;55.624;37.304;2023-12-28T15:36:51;6.97;;;4.45;;
74912;SDS011;63878;55.624;37.304;2023-12-28T15:46:51;8.43;;;4.97;;
74912;SDS011;63878;55.624;37.304;2023-12-28T15:56:52;8.38;;;4.65;;
74912;SDS011;63878;55.624;37.304;2023-12-28T16:06:52;10.60;;;4.97;;
74912;SDS011;63878;55.624;37.304;2023-12-28T16:16:53;8.77;;;4.73;;
74912;SDS011;63878;55.624;37.304;2023-12-28T16:26:54;6.82;;;3.83;;
74912;SDS011;63878;55.624;37.304;2023-12-28T16:36:55;4.85;;;3.28;;
74912;SDS011;63878;55.624;37.304;2023-12-28T16:46:55;6.20;;;2.93;;
74912;SDS011;63878;55.624;37.304;2023-12-28T16:56:56;5.37;;;3.30;;
74912;SDS011;63878;55.624;37.304;2023-12-28T17:06:57;4.43;;;2.87;;
74912;SDS011;63878;55.624;37.304;2023-12-28T17:16:59;6.47;;;2.55;;
74912;SDS011;63878;55.624;37.304;2023-12-28T17:27:00;2.47;;;1.60;;
74912;SDS011;63878;55.624;37.304;2023-12-28T17:37:08;2.88;;;1.90;;
74912;SDS011;63878;55.624;37.304;2023-12-28T17:47:13;2.30;;;1.73;;
74912;SDS011;63878;55.624;37.304;2023-12-28T17:57:20;2.22;;;1.40;;
74912;SDS011;63878;55.624;37.304;2023-12-28T18:07:20;3.28;;;1.63;;
74912;SDS011;63878;55.624;37.304;2023-12-28T18:17:21;2.87;;;1.53;;
74912;SDS011;63878;55.624;37.304;2023-12-28T18:27:23;4.82;;;2.58;;
74912;SDS011;63878;55.624;37.304;2023-12-28T18:37:23;2.90;;;1.90;;
74912;SDS011;63878;55.624;37.304;2023-12-28T18:47:24;4.27;;;2.20;;
74912;SDS011;63878;55.624;37.304;2023-12-28T18:57:25;3.05;;;2.17;;
74912;SDS011;63878;55.624;37.304;2023-12-28T19:07:26;3.90;;;2.70;;
74912;SDS011;63878;55.624;37.304;2023-12-28T19:17:27;4.57;;;1.83;;
74912;SDS011;63878;55.624;37.304;2023-12-28T19:27:28;3.42;;;1.98;;
74912;SDS011;63878;55.624;37.304;2023-12-28T19:37:29;4.90;;;2.90;;
74912;SDS011;63878;55.624;37.304;2023-12-28T19:47:29;4.30;;;2.70;;
74912;SDS011;63878;55.624;37.304;2023-12-28T20:07:30;7.20;;;0.93;;
74912;SDS011;63878;55.624;37.304;2023-12-28T20:17:31;3.75;;;2.25;;
74912;SDS011;63878;55.624;37.304;2023-12-28T20:27:31;2.40;;;1.75;;
74912;SDS011;63878;55.624;37.304;2023-12-28T20:47:32;3.60;;;2.40;;
74912;SDS011;63878;55.624;37.304;2023-12-28T20:57:32;3.87;;;2.83;;
74912;SDS011;63878;55.624;37.304;2023-12-28T21:07:33;2.40;;;2.10;;
74912;SDS011;63878;55.624;37.304;2023-12-28T21:17:34;2.55;;;1.52;;
74912;SDS011;63878;55.624;37.304;2023-12-28T21:27:35;2.60;;;1.92;;
74912;SDS011;63878;55.624;37.304;2023-12-28T21:37:35;3.63;;;2.05;;
74912;SDS011;63878;55.624;37.304;2023-12-28T21:47:38;3.17;;;1.83;;
74912;SDS011;63878;55.624;37.304;2023-12-28T21:57:38;4.45;;;1.65;;
74912;SDS011;63878;55.624;37.304;2023-12-28T22:07:38;3.30;;;1.80;;
74912;SDS011;63878;55.624;37.304;2023-12-28T22:17:39;3.78;;;1.95;;
74912;SDS011;63878;55.624;37.304;2023-12-28T22:27:40;4.87;;;2.27;;
74912;SDS011;63878;55.624;37.304;2023-12-28T22:37:40;3.58;;;2.13;;
74912;SDS011;63878;55.624;37.304;2023-12-28T22:47:41;5.05;;;1.90;;
74912;SDS011;63878;55.624;37.304;2023-12-28T22:57:42;2.03;;;1.40;;
74912;SDS011;63878;55.624;37.304;2023-12-28T23:07:42;1.80;;;1.38;;
74912;SDS011;63878;55.624;37.304;2023-12-28T23:17:43;3.17;;;1.73;;
74912;SDS011;63878;55.624;37.304;2023-12-28T23:27:43;2.37;;;1.50;;
74912;SDS011;63878;55.624;37.304;2023-12-28T23:37:47;2.22;;;1.50;;
74912;SDS011;63878;55.624;37.304;2023-12-28T23:47:48;3.42;;;1.60;;
74912;SDS011;63878;55.624;37.304;2023-12-28T23:57:48;3.53;;;1.90;;
